Time;durP1;ratioP1;P1;durP2;ratioP2;P2;SDS_P1;SDS_P2;PMS_P1;PMS_P2;Temp;Humidity;BMP_temperature;BMP_pressure;BME280_temperature;BME280_humidity;BME280_pressure;Samples;Min_cycle;Max_cycle;Signal;HPM_P1;HPM_P2
2023/09/26 00:00:19;;;;;;;11.65;1.92;;;14.00;99.90;;;;;;5133252;27;20482;-44
2023/09/26 00:02:46;;;;;;;6.22;1.80;;;14.00;99.90;;;;;;5133534;27;20020;-41
2023/09/26 00:05:12;;;;;;;3.90;1.80;;;14.00;99.90;;;;;;5104093;28;20494;-57
2023/09/26 00:07:38;;;;;;;7.90;2.13;;;13.90;99.90;;;;;;5145889;27;20027;-48
2023/09/26 00:10:05;;;;;;;6.03;1.88;;;13.10;99.90;;;;;;5133596;27;20114;-44
2023/09/26 00:12:31;;;;;;;7.28;2.42;;;13.90;99.90;;;;;;5133214;27;20027;-49
2023/09/26 00:14:57;;;;;;;8.05;1.88;;;13.90;99.90;;;;;;5133318;27;20554;-54
2023/09/26 00:17:23;;;;;;;6.88;1.73;;;13.90;99.90;;;;;;5133160;27;20066;-57
2023/09/26 00:19:49;;;;;;;4.07;1.77;;;13.80;99.90;;;;;;5132645;27;20433;-57
2023/09/26 00:22:14;;;;;;;6.55;2.08;;;13.80;99.90;;;;;;5133063;27;20083;-53
2023/09/26 00:24:40;;;;;;;13.20;2.55;;;13.80;99.90;;;;;;5132696;27;20031;-41
2023/09/26 00:27:06;;;;;;;5.57;1.85;;;16.00;99.90;;;;;;5132807;27;20032;-42
2023/09/26 00:29:33;;;;;;;5.45;1.60;;;13.10;99.90;;;;;;5132754;27;20026;-46
2023/09/26 00:31:59;;;;;;;8.48;1.92;;;13.80;99.90;;;;;;5132843;27;20106;-50
2023/09/26 00:34:25;;;;;;;5.60;1.67;;;13.50;99.90;;;;;;5132798;27;20110;-56
2023/09/26 00:36:51;;;;;;;11.43;1.83;;;13.80;99.90;;;;;;5132867;27;20102;-45
2023/09/26 00:39:16;;;;;;;7.10;2.17;;;13.80;99.90;;;;;;5132737;27;20787;-58
2023/09/26 00:41:42;;;;;;;5.45;1.85;;;13.80;99.90;;;;;;5132466;27;20119;-58
2023/09/26 00:44:08;;;;;;;4.82;1.58;;;11.90;99.90;;;;;;5114265;27;20025;-55
2023/09/26 00:46:34;;;;;;;5.25;2.10;;;13.70;99.90;;;;;;5132425;27;20023;-57
2023/09/26 00:49:01;;;;;;;3.70;1.15;;;13.40;99.90;;;;;;5132416;27;20022;-47
2023/09/26 00:51:27;;;;;;;9.13;1.95;;;13.70;99.90;;;;;;5132619;27;20026;-50
2023/09/26 00:53:54;;;;;;;8.18;2.20;;;13.70;99.90;;;;;;5132277;27;20019;-51
2023/09/26 00:56:20;;;;;;;9.40;1.77;;;13.70;99.90;;;;;;5132321;27;20063;-59
2023/09/26 00:58:46;;;;;;;6.45;1.88;;;13.60;99.90;;;;;;5132143;27;20110;-51
2023/09/26 01:01:12;;;;;;;4.00;1.42;;;13.60;99.90;;;;;;5132290;27;20043;-60
2023/09/26 01:03:38;;;;;;;9.63;1.80;;;13.60;99.90;;;;;;5132051;27;20015;-56
2023/09/26 01:06:05;;;;;;;6.95;1.98;;;13.60;99.90;;;;;;5117566;27;20094;-51
2023/09/26 01:08:30;;;;;;;8.40;1.88;;;13.60;99.90;;;;;;5132166;27;20809;-60
2023/09/26 01:10:59;;;;;;;8.07;2.15;;;13.60;99.90;;;;;;5131075;27;20121;-44
2023/09/26 01:13:25;;;;;;;2.73;1.33;;;13.50;99.90;;;;;;5132224;27;20034;-60
2023/09/26 01:15:50;;;;;;;4.45;1.80;;;13.60;99.90;;;;;;5131865;27;20023;-53
2023/09/26 01:18:17;;;;;;;6.47;1.88;;;13.60;99.90;;;;;;5131985;27;20020;-60
2023/09/26 01:20:45;;;;;;;8.38;1.80;;;13.60;99.90;;;;;;5132099;27;20077;-55
2023/09/26 01:23:12;;;;;;;5.28;1.65;;;13.60;99.90;;;;;;5131768;27;20019;-58
2023/09/26 01:25:38;;;;;;;8.15;2.20;;;13.60;99.90;;;;;;5131840;27;20023;-52
2023/09/26 01:28:08;;;;;;;5.72;1.48;;;13.60;99.90;;;;;;5131738;27;20023;-48
2023/09/26 01:30:34;;;;;;;9.27;1.50;;;13.60;99.90;;;;;;5131687;27;20035;-51
2023/09/26 01:33:02;;;;;;;8.90;1.92;;;13.60;99.90;;;;;;5131773;27;20058;-51
2023/09/26 01:35:28;;;;;;;9.80;1.80;;;13.60;99.90;;;;;;5131725;27;20391;-55
2023/09/26 01:37:54;;;;;;;2.90;1.30;;;13.50;99.90;;;;;;5131603;27;20030;-43
2023/09/26 01:40:20;;;;;;;5.68;1.63;;;13.50;99.90;;;;;;5122976;27;20143;-57
2023/09/26 01:42:45;;;;;;;4.93;1.55;;;13.10;99.90;;;;;;5131532;27;20039;-55
2023/09/26 01:45:11;;;;;;;8.82;1.75;;;13.50;99.90;;;;;;5131277;27;20027;-52
2023/09/26 01:47:57;;;;;;;6.60;1.88;;;13.50;99.90;;;;;;5117881;27;20030;-52
2023/09/26 01:50:23;;;;;;;6.65;1.83;;;13.50;99.90;;;;;;5125129;27;20023;-54
2023/09/26 01:52:49;;;;;;;7.00;1.80;;;13.50;99.90;;;;;;5118068;28;20019;-54
2023/09/26 01:55:22;;;;;;;6.05;1.67;;;13.50;99.90;;;;;;5131566;28;20019;-60
2023/09/26 01:57:48;;;;;;;7.93;1.58;;;15.10;99.90;;;;;;5131334;28;20015;-60
2023/09/26 02:00:15;;;;;;;5.90;1.98;;;13.60;99.90;;;;;;5119134;28;20067;-55
2023/09/26 02:02:46;;;;;;;8.13;1.65;;;15.70;99.90;;;;;;5129334;28;20069;-55
2023/09/26 02:05:17;;;;;;;6.22;1.70;;;13.70;99.90;;;;;;5131501;27;20028;-54
2023/09/26 02:07:43;;;;;;;6.15;1.60;;;13.90;99.90;;;;;;5131220;28;20027;-48
2023/09/26 02:10:09;;;;;;;4.63;1.42;;;13.80;99.90;;;;;;5131276;28;20027;-39
2023/09/26 02:12:37;;;;;;;5.13;1.50;;;13.90;99.90;;;;;;5131170;28;20103;-41
2023/09/26 02:15:05;;;;;;;4.47;1.63;;;13.90;99.90;;;;;;5131430;28;20102;-40
2023/09/26 02:17:33;;;;;;;5.50;1.73;;;14.00;99.90;;;;;;5131364;28;20475;-40
2023/09/26 02:20:00;;;;;;;3.40;1.20;;;15.10;99.90;;;;;;5116769;28;20043;-40
2023/09/26 02:22:25;;;;;;;4.63;1.25;;;14.00;99.90;;;;;;5134655;27;20023;-56
2023/09/26 02:24:54;;;;;;;4.75;1.67;;;14.30;99.90;;;;;;5135202;27;20365;-58
2023/09/26 02:27:20;;;;;;;6.40;1.90;;;14.00;99.90;;;;;;5135310;27;20051;-59
2023/09/26 02:29:46;;;;;;;2.85;1.10;;;14.00;99.90;;;;;;5134987;27;20062;-54
2023/09/26 02:32:12;;;;;;;7.25;1.98;;;14.00;99.90;;;;;;5135159;27;20497;-49
2023/09/26 02:34:37;;;;;;;6.70;2.25;;;14.00;99.90;;;;;;5134973;27;20023;-53
2023/09/26 02:37:03;;;;;;;5.22;1.70;;;14.00;99.90;;;;;;5135240;27;20015;-40
2023/09/26 02:39:29;;;;;;;7.32;1.90;;;14.00;99.90;;;;;;5134694;27;20496;-43
2023/09/26 02:41:55;;;;;;;10.73;1.48;;;14.00;99.90;;;;;;5134838;27;20110;-40
2023/09/26 02:44:20;;;;;;;9.40;1.60;;;14.10;99.90;;;;;;5134950;27;20080;-40
2023/09/26 02:46:46;;;;;;;6.82;1.55;;;14.10;99.90;;;;;;5134681;27;20110;-41
2023/09/26 02:49:11;;;;;;;4.32;1.38;;;14.10;99.90;;;;;;5127251;27;20479;-41
2023/09/26 02:51:37;;;;;;;4.85;1.20;;;14.20;99.90;;;;;;5127868;27;20023;-46
2023/09/26 02:54:03;;;;;;;11.60;2.58;;;14.30;99.90;;;;;;5134621;27;20102;-56
2023/09/26 02:56:28;;;;;;;3.25;1.33;;;14.30;99.90;;;;;;5134839;27;20023;-43
2023/09/26 02:58:54;;;;;;;5.43;1.58;;;14.40;99.90;;;;;;5134656;27;20149;-51
2023/09/26 03:01:20;;;;;;;10.02;1.75;;;14.60;99.90;;;;;;5134482;27;20399;-57
2023/09/26 03:03:46;;;;;;;7.88;1.77;;;14.70;99.90;;;;;;5134461;27;20098;-52
2023/09/26 03:06:11;;;;;;;6.85;2.33;;;14.80;99.90;;;;;;5134418;27;20034;-52
2023/09/26 03:08:37;;;;;;;10.98;2.20;;;14.80;99.90;;;;;;5134454;27;20025;-44
2023/09/26 03:11:03;;;;;;;5.88;2.15;;;14.90;99.90;;;;;;5134211;27;20031;-40
2023/09/26 03:13:35;;;;;;;7.97;1.85;;;15.00;99.90;;;;;;5134404;27;20015;-40
2023/09/26 03:16:02;;;;;;;9.93;2.35;;;13.20;99.90;;;;;;5134021;27;20023;-44
2023/09/26 03:18:28;;;;;;;7.97;2.30;;;15.90;99.90;;;;;;5134272;27;20480;-40
2023/09/26 03:20:54;;;;;;;5.93;2.20;;;15.00;99.90;;;;;;5133977;27;20035;-48
2023/09/26 03:23:24;;;;;;;6.85;2.10;;;15.10;99.90;;;;;;5115828;27;20036;-56
2023/09/26 03:25:50;;;;;;;7.97;2.20;;;15.10;99.90;;;;;;5134215;27;20035;-56
2023/09/26 03:28:15;;;;;;;10.98;3.00;;;15.10;99.90;;;;;;5134058;27;20487;-49
2023/09/26 03:30:42;;;;;;;5.03;1.90;;;15.10;99.90;;;;;;5134182;27;20027;-53
2023/09/26 03:33:08;;;;;;;8.93;1.92;;;14.10;99.90;;;;;;5132865;27;20015;-53
2023/09/26 03:35:33;;;;;;;10.88;2.15;;;15.40;99.90;;;;;;5133927;27;20038;-39
2023/09/26 03:37:59;;;;;;;7.57;1.95;;;15.60;99.90;;;;;;5133633;27;20022;-40
2023/09/26 03:40:25;;;;;;;7.13;1.85;;;15.60;99.90;;;;;;5133627;27;20510;-43
2023/09/26 03:42:50;;;;;;;9.77;2.60;;;15.70;99.90;;;;;;5133651;27;20031;-41
2023/09/26 03:45:17;;;;;;;11.43;2.00;;;15.90;99.90;;;;;;5133733;27;20484;-40
2023/09/26 03:47:43;;;;;;;6.38;2.28;;;15.90;99.90;;;;;;5133607;27;20506;-40
2023/09/26 03:50:09;;;;;;;9.68;1.58;;;15.20;99.90;;;;;;5118995;27;20106;-55
2023/09/26 03:52:35;;;;;;;8.43;2.08;;;15.90;99.90;;;;;;5133600;27;20488;-50
2023/09/26 03:55:02;;;;;;;6.60;1.70;;;16.00;99.90;;;;;;5133535;27;20076;-61
2023/09/26 03:57:30;;;;;;;7.82;2.50;;;17.20;99.90;;;;;;5133572;27;20036;-61
2023/09/26 03:59:56;;;;;;;11.35;2.10;;;16.00;99.90;;;;;;5133384;27;20031;-53
2023/09/26 04:02:21;;;;;;;6.85;2.40;;;16.10;99.90;;;;;;5133434;27;20114;-61
2023/09/26 04:04:47;;;;;;;10.48;2.47;;;16.10;99.90;;;;;;5133303;27;20552;-62
2023/09/26 04:07:13;;;;;;;7.43;2.28;;;16.20;99.90;;;;;;5133298;27;20026;-57
2023/09/26 04:09:39;;;;;;;13.35;2.30;;;16.20;99.90;;;;;;5133377;27;20365;-55
2023/09/26 04:12:05;;;;;;;14.35;2.33;;;16.20;99.90;;;;;;5133434;27;20034;-50
2023/09/26 04:14:30;;;;;;;10.25;2.90;;;16.20;99.90;;;;;;5133231;27;20027;-44
2023/09/26 04:16:56;;;;;;;9.55;2.10;;;16.20;99.90;;;;;;5133134;27;20083;-51
2023/09/26 04:19:22;;;;;;;8.98;2.05;;;16.20;99.90;;;;;;5133111;27;20067;-56
2023/09/26 04:21:48;;;;;;;8.48;2.65;;;16.30;99.90;;;;;;5115098;27;20031;-55
2023/09/26 04:24:14;;;;;;;9.45;1.95;;;16.30;99.90;;;;;;5112291;27;20408;-57
2023/09/26 04:26:40;;;;;;;11.52;2.00;;;16.30;99.90;;;;;;5116485;27;20094;-59
2023/09/26 04:29:06;;;;;;;7.22;2.03;;;16.30;99.90;;;;;;5132287;27;20493;-56
2023/09/26 04:31:32;;;;;;;8.77;2.83;;;16.30;99.90;;;;;;5112147;28;20019;-50
2023/09/26 04:33:57;;;;;;;12.32;2.60;;;16.40;99.90;;;;;;5112267;28;20087;-54
2023/09/26 04:36:23;;;;;;;10.05;2.35;;;16.40;99.90;;;;;;5111983;28;20020;-53
2023/09/26 04:38:49;;;;;;;8.45;2.03;;;16.50;99.90;;;;;;5112257;28;20069;-47
2023/09/26 04:41:16;;;;;;;12.95;3.95;;;16.50;99.90;;;;;;5111642;28;20054;-42
2023/09/26 04:43:41;;;;;;;11.18;2.67;;;16.50;99.90;;;;;;5111916;28;20026;-39
2023/09/26 04:46:14;;;;;;;14.27;3.20;;;16.50;99.90;;;;;;5111846;28;20023;-51
2023/09/26 04:48:41;;;;;;;13.30;2.63;;;16.50;99.90;;;;;;5127311;27;20035;-58
2023/09/26 04:51:14;;;;;;;8.10;2.67;;;16.60;99.90;;;;;;5121444;27;20035;-39
2023/09/26 04:53:40;;;;;;;12.35;2.67;;;16.60;99.90;;;;;;5132204;27;20027;-39
2023/09/26 04:56:06;;;;;;;8.25;2.78;;;16.60;99.90;;;;;;5132302;27;20012;-39
2023/09/26 04:58:33;;;;;;;9.90;2.33;;;15.80;99.90;;;;;;5132043;27;20428;-43
2023/09/26 05:01:03;;;;;;;9.15;2.40;;;16.60;99.90;;;;;;5132094;27;20034;-58
2023/09/26 05:03:29;;;;;;;7.43;2.75;;;16.60;99.90;;;;;;5132277;27;20020;-60
2023/09/26 05:05:54;;;;;;;7.72;2.30;;;16.70;99.90;;;;;;5132186;27;20038;-60
2023/09/26 05:08:20;;;;;;;5.45;2.53;;;16.70;99.90;;;;;;5132266;27;20031;-53
2023/09/26 05:10:48;;;;;;;8.98;3.10;;;16.70;99.90;;;;;;5131933;27;20413;-58
2023/09/26 05:13:14;;;;;;;15.43;3.10;;;16.70;99.90;;;;;;5132139;27;20026;-58
2023/09/26 05:15:40;;;;;;;9.55;2.90;;;16.70;99.90;;;;;;5131849;27;20034;-58
2023/09/26 05:18:05;;;;;;;6.90;2.63;;;16.80;99.90;;;;;;5132083;27;20019;-57
2023/09/26 05:20:31;;;;;;;8.95;3.47;;;16.80;99.90;;;;;;5131890;27;20042;-56
2023/09/26 05:22:59;;;;;;;17.85;3.70;;;16.80;99.90;;;;;;5131975;27;20030;-51
2023/09/26 05:25:25;;;;;;;11.27;3.20;;;16.80;99.90;;;;;;5131918;27;20030;-51
2023/09/26 05:27:50;;;;;;;17.95;3.95;;;16.00;99.90;;;;;;5131711;27;20383;-59
2023/09/26 05:30:16;;;;;;;13.00;3.45;;;16.80;99.90;;;;;;5131796;27;20031;-56
2023/09/26 05:32:42;;;;;;;9.73;4.03;;;16.80;99.90;;;;;;5131931;27;20468;-57
2023/09/26 05:35:08;;;;;;;8.95;3.50;;;16.80;99.90;;;;;;5131753;27;20109;-55
2023/09/26 05:37:35;;;;;;;8.82;3.95;;;16.80;99.90;;;;;;5131587;27;20015;-50
2023/09/26 05:40:03;;;;;;;7.78;3.53;;;16.90;99.90;;;;;;5130977;27;20456;-48
2023/09/26 05:42:29;;;;;;;9.88;3.78;;;16.90;99.90;;;;;;5131732;27;20015;-50
2023/09/26 05:44:55;;;;;;;11.02;3.90;;;16.90;99.90;;;;;;5113205;27;20096;-46
2023/09/26 05:47:21;;;;;;;12.75;3.60;;;16.90;99.90;;;;;;5131846;27;20034;-40
2023/09/26 05:49:50;;;;;;;11.88;3.85;;;17.00;99.90;;;;;;5118936;28;20122;-41
2023/09/26 05:52:16;;;;;;;11.60;4.00;;;16.90;99.90;;;;;;5130111;28;20030;-40
2023/09/26 05:54:41;;;;;;;8.32;3.88;;;16.90;99.90;;;;;;5131531;28;20373;-58
2023/09/26 05:57:07;;;;;;;10.10;3.97;;;16.90;99.90;;;;;;5130909;27;20073;-51
2023/09/26 05:59:32;;;;;;;8.13;3.60;;;16.20;99.90;;;;;;5131527;27;20030;-60
2023/09/26 06:01:58;;;;;;;7.90;3.53;;;17.00;99.90;;;;;;5131348;28;20039;-44
2023/09/26 06:04:24;;;;;;;13.13;4.00;;;16.90;99.90;;;;;;5131561;27;20641;-58
2023/09/26 06:06:50;;;;;;;10.90;3.67;;;17.00;99.90;;;;;;5131491;28;20399;-58
2023/09/26 06:09:15;;;;;;;13.30;4.05;;;17.00;99.90;;;;;;5131371;27;20061;-52
2023/09/26 06:11:41;;;;;;;15.60;3.85;;;17.00;99.90;;;;;;5131441;28;20019;-56
2023/09/26 06:14:06;;;;;;;12.05;3.72;;;17.00;99.90;;;;;;5131223;27;20553;-49
2023/09/26 06:16:32;;;;;;;9.77;4.15;;;17.00;99.90;;;;;;5131474;27;20044;-53
2023/09/26 06:18:58;;;;;;;8.80;3.45;;;17.00;99.90;;;;;;5131389;27;20027;-51
2023/09/26 06:21:25;;;;;;;7.28;3.28;;;17.00;99.90;;;;;;5131263;27;20027;-58
2023/09/26 06:23:50;;;;;;;10.95;3.63;;;17.90;99.90;;;;;;5113014;28;20395;-48
2023/09/26 06:26:16;;;;;;;10.77;4.32;;;17.00;99.90;;;;;;5131239;27;20023;-48
2023/09/26 06:28:42;;;;;;;10.90;3.78;;;17.00;99.90;;;;;;5131195;27;20024;-52
2023/09/26 06:31:09;;;;;;;8.77;3.58;;;17.00;99.90;;;;;;5131111;28;20050;-55
2023/09/26 06:33:35;;;;;;;7.85;3.75;;;17.00;99.90;;;;;;5131267;27;20026;-59
2023/09/26 06:36:01;;;;;;;5.50;3.10;;;17.00;99.90;;;;;;5130954;27;20439;-48
2023/09/26 06:38:28;;;;;;;10.63;3.83;;;17.10;99.90;;;;;;5131096;28;20456;-59
2023/09/26 06:41:07;;;;;;;10.15;3.45;;;17.00;99.90;;;;;;5112569;28;20066;-47
2023/09/26 06:43:33;;;;;;;6.70;3.27;;;17.10;99.90;;;;;;5130993;28;20019;-55
2023/09/26 06:46:05;;;;;;;7.40;3.08;;;17.10;99.90;;;;;;5122698;28;20043;-59
2023/09/26 06:48:31;;;;;;;5.45;2.90;;;17.10;99.90;;;;;;5110118;28;20055;-50
2023/09/26 06:50:56;;;;;;;12.02;4.28;;;17.60;99.90;;;;;;5099848;28;20073;-50
2023/09/26 06:53:22;;;;;;;7.95;2.90;;;17.10;99.90;;;;;;5116928;28;20031;-48
2023/09/26 06:55:48;;;;;;;5.72;2.92;;;17.10;99.90;;;;;;5110815;28;20027;-56
2023/09/26 06:58:13;;;;;;;9.23;3.55;;;15.20;99.90;;;;;;5110303;28;20038;-49
2023/09/26 07:00:39;;;;;;;8.63;3.45;;;17.10;99.90;;;;;;5110267;28;20028;-60
2023/09/26 07:03:05;;;;;;;8.25;2.60;;;17.20;99.90;;;;;;5113273;28;20526;-57
2023/09/26 07:05:31;;;;;;;7.13;2.10;;;17.20;99.90;;;;;;5122308;28;20031;-55
2023/09/26 07:07:57;;;;;;;4.60;2.10;;;17.30;99.90;;;;;;5118108;27;20024;-51
2023/09/26 07:10:23;;;;;;;6.20;2.45;;;17.30;99.90;;;;;;5113730;28;20087;-58
2023/09/26 07:12:49;;;;;;;5.05;2.15;;;17.30;99.90;;;;;;5115733;27;20102;-46
2023/09/26 07:15:15;;;;;;;7.32;2.67;;;17.40;99.90;;;;;;5118334;27;20028;-55
2023/09/26 07:17:41;;;;;;;6.65;2.72;;;17.40;99.90;;;;;;5113856;27;20020;-46
2023/09/26 07:20:13;;;;;;;7.00;2.30;;;17.50;99.90;;;;;;5118749;27;20043;-52
2023/09/26 07:22:41;;;;;;;4.18;2.00;;;17.60;99.90;;;;;;5126551;27;20396;-51
2023/09/26 07:25:07;;;;;;;5.78;2.47;;;17.60;99.90;;;;;;5124318;27;20043;-47
2023/09/26 07:27:33;;;;;;;6.93;2.92;;;17.80;99.90;;;;;;5113289;28;20027;-55
2023/09/26 07:29:58;;;;;;;8.60;2.53;;;17.90;99.90;;;;;;5113507;28;20072;-49
2023/09/26 07:32:24;;;;;;;5.63;2.10;;;17.90;99.90;;;;;;5122867;27;20455;-54
2023/09/26 07:34:49;;;;;;;5.13;2.00;;;18.90;99.90;;;;;;5118565;27;20039;-54
2023/09/26 07:37:15;;;;;;;5.55;2.10;;;18.20;99.90;;;;;;5121173;27;20111;-59
2023/09/26 07:39:48;;;;;;;5.93;2.53;;;18.40;99.90;;;;;;5128765;27;20043;-47
2023/09/26 07:42:14;;;;;;;3.78;1.90;;;18.40;99.90;;;;;;5133957;27;20022;-53
2023/09/26 07:44:40;;;;;;;6.25;2.10;;;18.40;99.90;;;;;;5133813;27;20027;-55
2023/09/26 07:47:05;;;;;;;9.18;2.60;;;18.40;99.90;;;;;;5129521;27;20020;-55
2023/09/26 07:49:31;;;;;;;4.93;2.15;;;18.30;99.90;;;;;;5113213;28;20055;-43
2023/09/26 07:51:57;;;;;;;6.22;1.77;;;18.30;99.90;;;;;;5126528;27;20442;-54
2023/09/26 07:54:22;;;;;;;14.35;2.40;;;18.30;99.90;;;;;;5113991;27;20035;-45
2023/09/26 07:56:48;;;;;;;4.50;1.85;;;18.30;99.90;;;;;;5117811;27;20050;-56
2023/09/26 07:59:13;;;;;;;3.53;1.90;;;18.30;99.90;;;;;;5117061;27;20055;-55
2023/09/26 08:01:40;;;;;;;4.72;1.88;;;18.40;99.90;;;;;;5129756;27;20043;-53
2023/09/26 08:04:07;;;;;;;5.20;2.03;;;17.90;99.90;;;;;;5128835;27;20465;-43
2023/09/26 08:06:33;;;;;;;5.13;1.80;;;18.60;99.90;;;;;;5097001;28;20028;-49
2023/09/26 08:08:58;;;;;;;3.63;1.90;;;19.10;99.90;;;;;;5116136;27;20016;-48
2023/09/26 08:11:27;;;;;;;6.57;1.90;;;19.50;99.90;;;;;;5130301;27;20121;-57
2023/09/26 08:13:53;;;;;;;;;;;19.70;99.90;;;;;;5116441;27;20059;-56
2023/09/26 08:16:20;;;;;;;5.10;1.88;;;19.80;99.90;;;;;;5112432;28;19973;-50
2023/09/26 08:18:45;;;;;;;7.22;1.95;;;20.30;99.90;;;;;;5112029;28;20377;-45
2023/09/26 08:21:11;;;;;;;5.70;1.88;;;20.70;99.90;;;;;;5112114;28;20031;-54
2023/09/26 08:23:37;;;;;;;6.53;1.88;;;20.90;99.90;;;;;;5112627;28;20112;-60
2023/09/26 08:26:06;;;;;;;4.05;1.40;;;21.00;99.90;;;;;;5112357;28;20027;-56
2023/09/26 08:28:32;;;;;;;4.13;1.83;;;21.10;99.90;;;;;;5096621;27;20027;-49
2023/09/26 08:31:07;;;;;;;5.15;1.65;;;20.90;99.90;;;;;;5121301;27;20028;-54
2023/09/26 08:33:34;;;;;;;3.45;1.40;;;20.50;99.90;;;;;;5114535;27;20484;-55
2023/09/26 08:36:00;;;;;;;5.00;1.70;;;20.30;99.90;;;;;;5112312;28;20051;-46
2023/09/26 08:38:25;;;;;;;4.22;1.55;;;20.10;99.90;;;;;;5111965;28;20024;-48
2023/09/26 08:40:51;;;;;;;4.85;1.70;;;20.10;99.90;;;;;;5111815;28;20515;-44
2023/09/26 08:43:24;;;;;;;7.20;1.65;;;19.40;99.90;;;;;;5114052;27;20088;-60
2023/09/26 08:45:50;;;;;;;3.30;1.25;;;20.20;99.90;;;;;;5114641;27;20499;-56
2023/09/26 08:48:16;;;;;;;3.03;1.58;;;20.10;99.90;;;;;;5118120;27;20042;-52
2023/09/26 08:50:42;;;;;;;5.93;1.67;;;18.40;99.90;;;;;;5116761;27;20364;-55
2023/09/26 08:53:08;;;;;;;2.85;1.48;;;19.90;99.90;;;;;;5132476;27;20029;-51
2023/09/26 08:55:34;;;;;;;6.85;2.50;;;19.80;99.90;;;;;;5130706;27;20023;-53
2023/09/26 08:58:00;;;;;;;4.75;1.88;;;18.80;99.90;;;;;;5113343;27;20047;-45
2023/09/26 09:00:27;;;;;;;9.55;1.80;;;19.10;99.90;;;;;;5113263;27;20035;-51
2023/09/26 09:02:53;;;;;;;5.95;2.53;;;19.70;99.90;;;;;;5131863;27;20030;-52
2023/09/26 09:05:20;;;;;;;7.45;1.98;;;19.70;99.90;;;;;;5131979;27;20023;-54
2023/09/26 09:07:47;;;;;;;5.43;1.80;;;19.70;99.90;;;;;;5131986;27;20019;-56
2023/09/26 09:10:16;;;;;;;4.93;1.70;;;19.60;99.90;;;;;;5132035;27;20390;-58
2023/09/26 09:12:50;;;;;;;6.05;1.60;;;19.40;99.90;;;;;;5113638;27;20098;-57
2023/09/26 09:15:15;;;;;;;6.05;1.40;;;19.60;99.90;;;;;;5132055;27;20450;-57
2023/09/26 09:17:52;;;;;;;5.88;1.40;;;19.60;99.90;;;;;;5131660;27;20019;-51
2023/09/26 09:20:34;;;;;;;2.75;1.40;;;20.10;99.90;;;;;;5128459;27;20051;-60
2023/09/26 09:23:05;;;;;;;6.25;2.03;;;19.70;99.90;;;;;;5113365;27;20035;-50
2023/09/26 09:25:38;;;;;;;11.07;1.55;;;19.40;99.90;;;;;;5111463;27;20107;-57
2023/09/26 09:28:08;;;;;;;4.55;1.70;;;19.70;99.90;;;;;;5110998;28;20011;-52
2023/09/26 09:30:41;;;;;;;3.92;1.63;;;19.70;99.90;;;;;;5113577;28;20032;-59
2023/09/26 09:33:10;;;;;;;3.10;1.50;;;19.70;99.90;;;;;;5131832;27;20034;-61
2023/09/26 09:35:39;;;;;;;3.88;1.55;;;19.80;99.90;;;;;;5131637;27;20420;-51
2023/09/26 09:38:08;;;;;;;3.17;1.35;;;19.90;99.90;;;;;;5131532;27;20179;-44
2023/09/26 09:40:34;;;;;;;6.85;1.80;;;19.90;99.90;;;;;;5131478;27;20051;-42
2023/09/26 09:43:00;;;;;;;6.25;2.33;;;19.90;99.90;;;;;;5131487;27;20026;-43
2023/09/26 09:45:31;;;;;;;3.40;1.60;;;20.70;99.90;;;;;;5131436;27;20023;-51
2023/09/26 09:48:00;;;;;;;5.25;1.75;;;19.70;99.90;;;;;;5112984;28;20118;-57
2023/09/26 09:50:27;;;;;;;6.18;2.05;;;19.70;99.90;;;;;;5113157;28;20024;-58
2023/09/26 09:52:57;;;;;;;7.25;2.10;;;19.70;99.90;;;;;;5112683;27;20392;-58
2023/09/26 09:55:32;;;;;;;4.13;1.40;;;19.70;99.90;;;;;;5116302;27;20421;-59
2023/09/26 09:58:02;;;;;;;5.82;1.70;;;19.80;99.90;;;;;;5110490;28;20492;-44
2023/09/26 10:00:29;;;;;;;5.13;1.75;;;19.90;99.90;;;;;;5110278;28;20059;-44
2023/09/26 10:03:00;;;;;;;6.90;2.13;;;20.30;99.90;;;;;;5110516;28;20106;-60
2023/09/26 10:05:28;;;;;;;6.32;2.40;;;20.60;99.90;;;;;;5110270;28;20023;-50
2023/09/26 10:07:55;;;;;;;3.88;1.88;;;20.40;99.90;;;;;;5110253;28;20556;-57
2023/09/26 10:10:22;;;;;;;5.35;2.30;;;21.30;99.90;;;;;;5110845;27;20027;-52
2023/09/26 10:12:47;;;;;;;7.30;2.03;;;21.50;99.90;;;;;;5110297;27;20152;-54
2023/09/26 10:15:16;;;;;;;3.40;1.80;;;21.60;99.90;;;;;;5110672;27;20037;-56
2023/09/26 10:17:43;;;;;;;5.20;1.85;;;21.60;99.90;;;;;;5124379;28;20069;-56
2023/09/26 10:20:14;;;;;;;5.75;1.95;;;20.30;99.90;;;;;;5126342;27;20028;-51
2023/09/26 10:22:41;;;;;;;7.20;2.63;;;21.50;99.90;;;;;;5110242;28;20039;-57
2023/09/26 10:25:07;;;;;;;3.65;1.42;;;21.30;99.90;;;;;;5118058;27;20019;-50
2023/09/26 10:27:38;;;;;;;3.28;1.73;;;21.90;99.90;;;;;;5110370;28;20034;-53
2023/09/26 10:30:06;;;;;;;5.85;1.80;;;22.00;99.90;;;;;;5110263;28;20019;-55
2023/09/26 10:32:33;;;;;;;5.30;2.00;;;22.50;99.90;;;;;;5110292;28;20116;-54
2023/09/26 10:34:59;;;;;;;3.47;1.42;;;22.00;99.90;;;;;;5110307;28;20035;-60
2023/09/26 10:37:27;;;;;;;5.35;1.55;;;22.80;99.90;;;;;;5110324;28;20152;-51
2023/09/26 10:39:52;;;;;;;5.05;1.98;;;22.90;99.90;;;;;;5111297;28;20496;-55
2023/09/26 10:42:21;;;;;;;4.32;1.77;;;21.70;99.90;;;;;;5118856;27;20046;-56
2023/09/26 10:44:49;;;;;;;4.88;1.48;;;23.00;99.90;;;;;;5116956;27;20054;-50
2023/09/26 10:47:20;;;;;;;3.63;1.80;;;23.10;99.90;;;;;;5113973;28;20020;-52
2023/09/26 10:49:45;;;;;;;3.90;1.58;;;23.10;99.90;;;;;;5113829;28;20140;-48
2023/09/26 10:52:12;;;;;;;4.97;1.55;;;23.00;99.90;;;;;;5132449;27;20040;-57
2023/09/26 10:54:39;;;;;;;3.75;1.60;;;23.00;99.90;;;;;;5134400;27;20129;-59
2023/09/26 10:57:05;;;;;;;3.63;1.25;;;22.90;99.90;;;;;;5131815;27;20074;-56
2023/09/26 10:59:32;;;;;;;4.97;1.75;;;22.80;99.90;;;;;;5115675;27;20019;-45
2023/09/26 11:01:59;;;;;;;4.82;1.77;;;23.10;99.90;;;;;;5113633;27;20039;-56
2023/09/26 11:04:28;;;;;;;6.57;1.60;;;22.90;99.90;;;;;;5115519;27;20020;-56
2023/09/26 11:06:55;;;;;;;6.93;1.48;;;22.80;99.90;;;;;;5120580;27;20023;-43
2023/09/26 11:09:21;;;;;;;5.22;1.45;;;22.70;99.90;;;;;;5131366;27;20027;-46
2023/09/26 11:11:46;;;;;;;4.43;1.15;;;22.50;99.90;;;;;;5134223;27;20490;-54
2023/09/26 11:14:12;;;;;;;3.03;1.30;;;22.40;99.90;;;;;;5133978;27;20027;-54
2023/09/26 11:16:41;;;;;;;4.55;1.20;;;22.40;99.90;;;;;;5134056;27;20030;-46
2023/09/26 11:19:10;;;;;;;6.45;1.42;;;22.40;99.90;;;;;;5132894;27;20175;-55
2023/09/26 11:21:36;;;;;;;2.05;1.17;;;22.90;99.90;;;;;;5126033;27;20332;-57
2023/09/26 11:24:37;;;;;;;4.03;1.50;;;23.40;99.90;;;;;;5122834;27;20019;-58
2023/09/26 11:27:11;;;;;;;4.00;1.10;;;23.60;99.90;;;;;;5036604;28;20029;-48
2023/09/26 11:29:37;;;;;;;6.78;1.73;;;23.30;99.90;;;;;;5100808;28;20028;-52
2023/09/26 11:32:04;;;;;;;5.15;1.73;;;23.10;99.90;;;;;;5113106;28;20042;-56
2023/09/26 11:34:30;;;;;;;3.83;1.27;;;23.00;99.90;;;;;;5118732;27;20026;-57
2023/09/26 11:36:57;;;;;;;4.78;1.60;;;23.20;99.90;;;;;;5115153;27;20024;-57
2023/09/26 11:39:23;;;;;;;9.88;1.85;;;23.70;99.90;;;;;;5112865;28;20394;-56
2023/09/26 11:42:11;;;;;;;3.35;1.60;;;24.10;99.90;;;;;;5112813;28;20031;-50
2023/09/26 11:44:37;;;;;;;3.47;1.25;;;24.40;99.90;;;;;;5112866;28;20043;-55
2023/09/26 11:47:04;;;;;;;5.03;1.50;;;24.50;99.90;;;;;;5112792;28;20012;-40
2023/09/26 11:49:30;;;;;;;5.57;1.27;;;24.70;99.90;;;;;;5112825;28;20115;-41
2023/09/26 11:51:56;;;;;;;4.85;0.88;;;24.00;99.90;;;;;;5129101;27;20504;-41
2023/09/26 11:54:22;;;;;;;2.10;0.88;;;24.40;99.90;;;;;;5124297;27;20028;-41
2023/09/26 11:56:48;;;;;;;2.78;1.00;;;23.80;99.90;;;;;;5127029;27;20031;-57
2023/09/26 11:59:15;;;;;;;4.82;1.40;;;23.30;99.90;;;;;;5132100;27;20031;-51
2023/09/26 12:01:42;;;;;;;5.60;1.23;;;23.00;99.90;;;;;;5120627;27;20039;-48
2023/09/26 12:04:10;;;;;;;4.88;1.25;;;23.50;99.90;;;;;;5112626;28;20026;-47
2023/09/26 12:06:36;;;;;;;2.58;1.20;;;25.70;99.90;;;;;;5112745;28;20035;-46
2023/09/26 12:09:04;;;;;;;2.33;1.40;;;25.10;99.90;;;;;;5112841;28;20028;-56
2023/09/26 12:11:30;;;;;;;3.08;1.13;;;25.10;99.90;;;;;;5112969;28;20028;-46
2023/09/26 12:13:56;;;;;;;5.65;1.30;;;25.10;99.90;;;;;;5117329;27;20026;-53
2023/09/26 12:16:22;;;;;;;3.35;1.27;;;24.80;99.90;;;;;;5118087;27;20472;-52
2023/09/26 12:18:48;;;;;;;3.00;1.40;;;24.80;99.90;;;;;;5125130;27;20083;-45
2023/09/26 12:21:14;;;;;;;4.05;1.67;;;24.80;99.90;;;;;;5121133;27;20032;-51
2023/09/26 12:23:39;;;;;;;3.63;1.30;;;24.40;99.90;;;;;;5127690;27;20011;-49
2023/09/26 12:26:05;;;;;;;4.80;1.30;;;24.20;99.90;;;;;;5125766;27;20028;-46
2023/09/26 12:28:31;;;;;;;3.63;1.42;;;24.10;99.90;;;;;;5119257;27;20022;-46
2023/09/26 12:30:56;;;;;;;5.68;1.52;;;24.00;99.90;;;;;;5130636;27;20750;-48
2023/09/26 12:33:22;;;;;;;2.38;1.10;;;23.80;99.90;;;;;;5130059;27;20080;-51
2023/09/26 12:35:48;;;;;;;4.75;1.20;;;23.60;99.90;;;;;;5129286;27;20480;-46
2023/09/26 12:38:13;;;;;;;4.10;1.52;;;23.10;99.90;;;;;;5128899;27;20057;-52
2023/09/26 12:40:39;;;;;;;3.35;1.30;;;23.00;99.90;;;;;;5121727;27;20509;-49
2023/09/26 12:43:05;;;;;;;5.72;1.77;;;22.80;99.90;;;;;;5125489;27;20459;-56